createdAt,value
2022-07-27T00:00:08.355Z,1018.85
2022-07-27T00:05:07.827Z,1018.88
2022-07-27T00:10:08.524Z,1018.87
2022-07-27T00:15:08.242Z,1018.81
2022-07-27T00:20:07.975Z,1018.86
2022-07-27T00:25:07.643Z,1018.79
2022-07-27T00:30:08.331Z,1018.84
2022-07-27T00:35:08.009Z,1018.8
2022-07-27T00:40:07.727Z,1018.89
2022-07-27T00:45:08.427Z,1018.81
2022-07-27T00:50:08.114Z,1018.85
2022-07-27T00:55:07.825Z,1018.8
2022-07-27T01:00:08.518Z,1018.75
2022-07-27T01:05:08.205Z,1018.81
2022-07-27T01:10:08.015Z,1018.82
2022-07-27T01:15:08.003Z,1018.8
2022-07-27T01:20:07.730Z,1018.87
2022-07-27T01:25:08.445Z,1018.83
2022-07-27T01:30:08.208Z,1018.9
2022-07-27T01:35:07.916Z,1018.92
2022-07-27T01:40:08.632Z,1018.84
2022-07-27T01:45:08.873Z,1018.76
2022-07-27T01:50:08.528Z,1018.79
2022-07-27T01:55:08.236Z,1018.79
2022-07-27T02:00:07.912Z,1018.85
2022-07-27T02:05:08.725Z,1018.81
2022-07-27T02:10:08.460Z,1018.78
2022-07-27T02:15:08.223Z,1018.8
2022-07-27T02:20:07.911Z,1018.74
2022-07-27T02:25:08.635Z,1018.67
2022-07-27T02:30:08.365Z,1018.7
2022-07-27T02:35:18.768Z,1018.71
2022-07-27T02:40:07.698Z,1018.71
2022-07-27T02:45:08.390Z,1018.73
2022-07-27T02:50:08.123Z,1018.68
2022-07-27T02:55:07.823Z,1018.64
2022-07-27T03:00:08.603Z,1018.69
2022-07-27T03:05:08.299Z,1018.69
2022-07-27T03:10:08.050Z,1018.75
2022-07-27T03:15:07.715Z,1018.78
2022-07-27T03:20:08.803Z,1018.73
2022-07-27T03:25:08.341Z,1018.62
2022-07-27T03:30:08.039Z,1018.71
2022-07-27T03:35:07.725Z,1018.67
2022-07-27T03:40:08.438Z,1018.67
2022-07-27T03:45:08.127Z,1018.72
2022-07-27T03:50:07.866Z,1018.69
2022-07-27T03:55:08.588Z,1018.73
2022-07-27T04:00:08.304Z,1018.86
2022-07-27T04:05:02.108Z,1018.77
2022-07-27T04:10:02.146Z,1018.82
2022-07-27T04:15:02.589Z,1018.89
2022-07-27T04:20:02.411Z,1018.96
2022-07-27T04:25:02.257Z,1019.02
2022-07-27T04:30:05.710Z,1018.95
2022-07-27T04:35:01.896Z,1018.93
2022-07-27T04:40:02.736Z,1018.93
2022-07-27T04:45:02.576Z,1018.95
2022-07-27T04:50:02.488Z,1019.14
2022-07-27T04:55:02.505Z,1019.09
2022-07-27T05:00:01.959Z,1019.08
2022-07-27T05:05:01.751Z,1019.06
2022-07-27T05:10:02.537Z,1019.15
2022-07-27T05:15:02.402Z,1019.19
2022-07-27T05:20:02.192Z,1019.26
2022-07-27T05:25:01.985Z,1019.29
2022-07-27T05:30:01.754Z,1019.33
2022-07-27T05:35:02.586Z,1019.42
2022-07-27T05:40:02.449Z,1019.35
2022-07-27T05:45:02.307Z,1019.34
2022-07-27T05:50:02.180Z,1019.39
2022-07-27T05:55:02.240Z,1019.52
2022-07-27T06:00:02.191Z,1019.48
2022-07-27T06:05:02.180Z,1019.47
2022-07-27T06:10:02.215Z,1019.51
2022-07-27T06:15:02.263Z,1019.59
2022-07-27T06:20:02.102Z,1019.66
2022-07-27T06:25:01.991Z,1019.65
2022-07-27T06:30:01.828Z,1019.63
2022-07-27T06:35:02.690Z,1019.71
2022-07-27T06:40:02.635Z,1019.81
2022-07-27T06:45:02.463Z,1019.79
2022-07-27T06:50:02.300Z,1019.77
2022-07-27T06:55:02.075Z,1019.76
2022-07-27T07:00:02.013Z,1019.79
2022-07-27T07:05:01.885Z,1019.76
2022-07-27T07:10:02.732Z,1019.79
2022-07-27T07:15:02.554Z,1019.87
2022-07-27T07:20:02.360Z,1019.87
2022-07-27T07:25:03.015Z,1019.86
2022-07-27T07:30:02.735Z,1019.77
2022-07-27T07:35:02.569Z,1019.79
2022-07-27T07:40:18.811Z,1019.81
2022-07-27T07:45:02.331Z,1019.84
2022-07-27T07:50:02.059Z,1019.79
2022-07-27T07:55:01.897Z,1019.78
2022-07-27T08:00:02.786Z,1019.75
2022-07-27T08:05:02.577Z,1019.81
2022-07-27T08:10:02.495Z,1019.78
2022-07-27T08:15:02.361Z,1019.99
2022-07-27T08:20:02.172Z,1019.96
2022-07-27T08:25:01.959Z,1020.06
2022-07-27T08:30:02.526Z,1019.91
2022-07-27T08:35:02.578Z,1019.99
2022-07-27T08:45:02.303Z,1019.88
2022-07-27T08:50:02.282Z,1019.95
2022-07-27T08:55:02.203Z,1020.04
2022-07-27T09:00:02.323Z,1019.98
2022-07-27T09:05:02.413Z,1020.0
2022-07-27T09:10:02.290Z,1019.93
2022-07-27T09:15:02.210Z,1020.0
2022-07-27T09:20:02.069Z,1019.98
2022-07-27T09:25:01.881Z,1019.88
2022-07-27T09:30:02.814Z,1020.0
2022-07-27T09:35:02.646Z,1019.96
2022-07-27T09:40:02.510Z,1019.92
2022-07-27T09:45:02.321Z,1019.87
2022-07-27T09:50:02.657Z,1019.84
2022-07-27T09:55:02.581Z,1019.9
2022-07-27T10:00:02.605Z,1019.82
2022-07-27T10:05:02.650Z,1019.77
2022-07-27T10:10:02.492Z,1019.84
2022-07-27T10:15:02.421Z,1019.94
2022-07-27T10:20:02.238Z,1019.78
2022-07-27T10:25:02.194Z,1019.82
2022-07-27T10:30:01.972Z,1019.78
2022-07-27T10:35:01.754Z,1019.75
2022-07-27T10:40:02.613Z,1019.72
2022-07-27T10:45:02.404Z,1019.8
2022-07-27T10:50:11.388Z,1019.7
2022-07-27T10:55:02.215Z,1019.63
2022-07-27T11:00:12.432Z,1019.6
2022-07-27T11:05:02.025Z,1019.61
2022-07-27T11:10:04.697Z,1019.71
2022-07-27T11:15:02.197Z,1019.62
2022-07-27T11:20:02.114Z,1019.68
2022-07-27T11:25:01.942Z,1019.56
2022-07-27T11:30:03.125Z,1019.51
2022-07-27T11:35:02.021Z,1019.53
2022-07-27T11:40:13.872Z,1019.64
2022-07-27T11:45:01.989Z,1019.61
2022-07-27T11:50:01.896Z,1019.55
2022-07-27T11:55:01.786Z,1019.34
2022-07-27T12:00:02.721Z,1019.36
2022-07-27T12:05:03.157Z,1019.41
2022-07-27T12:10:02.329Z,1019.34
2022-07-27T12:15:16.327Z,1019.19
2022-07-27T12:20:02.136Z,1019.26
2022-07-27T12:25:01.965Z,1019.21
2022-07-27T12:30:01.791Z,1019.2
2022-07-27T12:35:02.660Z,1019.19
2022-07-27T12:40:02.458Z,1019.11
2022-07-27T12:45:02.430Z,1019.07
2022-07-27T12:50:02.232Z,1019.02
2022-07-27T12:55:02.036Z,1019.07
2022-07-27T13:00:01.776Z,1019.05
2022-07-27T13:05:02.546Z,1018.98
2022-07-27T13:10:04.052Z,1019.12
2022-07-27T13:15:02.293Z,1019.03
2022-07-27T13:20:02.144Z,1019.05
2022-07-27T13:25:01.993Z,1019.02
2022-07-27T13:30:02.783Z,1018.94
2022-07-27T13:35:02.630Z,1018.95
2022-07-27T13:40:02.456Z,1019.02
2022-07-27T13:45:09.376Z,1019.03
2022-07-27T13:50:02.582Z,1019.16
2022-07-27T13:55:02.553Z,1019.07
2022-07-27T14:00:02.840Z,1019.06
2022-07-27T14:05:02.717Z,1019.03
2022-07-27T14:10:02.894Z,1019.02
2022-07-27T14:15:01.898Z,1018.94
2022-07-27T14:20:02.718Z,1018.88
2022-07-27T14:25:02.643Z,1018.92
2022-07-27T14:30:02.370Z,1018.93
2022-07-27T14:35:02.172Z,1018.88
2022-07-27T14:40:02.041Z,1018.87
2022-07-27T14:45:01.914Z,1018.86
2022-07-27T14:50:02.785Z,1018.76
2022-07-27T14:55:02.643Z,1018.71
2022-07-27T15:00:02.366Z,1018.63
2022-07-27T15:05:02.227Z,1018.58
2022-07-27T15:10:02.224Z,1018.56
2022-07-27T15:15:02.422Z,1018.54
2022-07-27T15:20:02.315Z,1018.46
2022-07-27T15:25:02.126Z,1018.44
2022-07-27T15:30:01.972Z,1018.37
2022-07-27T15:35:01.843Z,1018.4
2022-07-27T15:40:02.636Z,1018.35
2022-07-27T15:45:02.525Z,1018.33
2022-07-27T15:50:02.558Z,1018.31
2022-07-27T15:55:02.462Z,1018.29
2022-07-27T16:00:02.376Z,1018.39
2022-07-27T16:05:02.852Z,1018.21
2022-07-27T16:10:02.637Z,1018.28
2022-07-27T16:15:02.499Z,1018.18
2022-07-27T16:20:02.341Z,1018.16
2022-07-27T16:25:02.144Z,1018.16
2022-07-27T16:30:02.034Z,1018.07
2022-07-27T16:35:01.966Z,1018.11
2022-07-27T16:40:01.926Z,1018.03
2022-07-27T16:45:02.962Z,1018.05
2022-07-27T16:50:01.890Z,1018.05
2022-07-27T16:55:02.824Z,1018.07
2022-07-27T17:00:02.882Z,1018.05
2022-07-27T17:05:03.146Z,1018.17
2022-07-27T17:10:02.277Z,1018.07
2022-07-27T17:15:02.102Z,1018.14
2022-07-27T17:20:01.883Z,1018.11
2022-07-27T17:25:02.662Z,1018.13
2022-07-27T17:30:02.462Z,1018.16
2022-07-27T17:35:02.332Z,1018.12
2022-07-27T17:40:02.118Z,1018.12
2022-07-27T17:45:02.242Z,1018.18
2022-07-27T17:50:02.074Z,1018.23
2022-07-27T17:55:02.025Z,1018.24
2022-07-27T18:00:01.846Z,1018.18
2022-07-27T18:05:02.683Z,1018.21
2022-07-27T18:10:02.554Z,1018.28
2022-07-27T18:15:02.334Z,1018.32
2022-07-27T18:20:02.171Z,1018.26
2022-07-27T18:25:02.024Z,1018.16
2022-07-27T18:30:01.840Z,1018.24
2022-07-27T18:35:02.788Z,1018.29
2022-07-27T18:40:02.617Z,1018.28
2022-07-27T18:45:02.591Z,1018.26
2022-07-27T18:50:02.399Z,1018.32
2022-07-27T18:55:02.193Z,1018.34
2022-07-27T19:00:02.141Z,1018.38
2022-07-27T19:05:01.993Z,1018.38
2022-07-27T19:10:02.081Z,1018.42
2022-07-27T19:15:02.085Z,1018.49
2022-07-27T19:20:01.989Z,1018.52
2022-07-27T19:25:01.911Z,1018.66
2022-07-27T19:30:02.731Z,1018.66
2022-07-27T19:35:02.717Z,1018.77
2022-07-27T19:40:20.175Z,1018.7
2022-07-27T19:45:02.754Z,1018.86
2022-07-27T19:50:02.698Z,1018.86
2022-07-27T19:55:17.988Z,1018.88
2022-07-27T20:00:01.814Z,1018.9
2022-07-27T20:05:02.564Z,1018.93
2022-07-27T20:10:02.460Z,1018.97
2022-07-27T20:15:02.241Z,1018.91
2022-07-27T20:20:02.095Z,1018.99
2022-07-27T20:25:01.912Z,1019.07
2022-07-27T20:30:02.777Z,1018.99
2022-07-27T20:35:08.490Z,1019.04
2022-07-27T20:40:08.218Z,1019.07
2022-07-27T20:45:07.955Z,1019.03
2022-07-27T20:50:07.648Z,1019.19
2022-07-27T20:55:08.377Z,1019.22
2022-07-27T21:00:18.098Z,1019.26
2022-07-27T21:05:07.863Z,1019.26
2022-07-27T21:10:08.633Z,1019.34
2022-07-27T21:15:13.064Z,1019.22
2022-07-27T21:20:08.215Z,1019.24
2022-07-27T21:25:07.914Z,1019.28
2022-07-27T21:30:08.625Z,1019.35
2022-07-27T21:35:08.339Z,1019.42
2022-07-27T21:40:08.091Z,1019.41
2022-07-27T21:45:07.846Z,1019.48
2022-07-27T21:50:08.552Z,1019.47
2022-07-27T21:55:08.295Z,1019.38
2022-07-27T22:00:08.038Z,1019.47
2022-07-27T22:05:07.778Z,1019.51
2022-07-27T22:10:08.817Z,1019.43
2022-07-27T22:15:08.589Z,1019.47
2022-07-27T22:20:08.313Z,1019.48
2022-07-27T22:25:08.042Z,1019.46
2022-07-27T22:30:07.778Z,1019.38
2022-07-27T22:35:08.500Z,1019.48
2022-07-27T22:40:08.245Z,1019.46
2022-07-27T22:45:07.988Z,1019.52
2022-07-27T22:50:07.686Z,1019.6
2022-07-27T22:55:08.208Z,1019.63
2022-07-27T23:00:59.663Z,1019.62
2022-07-27T23:05:08.192Z,1019.57
2022-07-27T23:10:07.921Z,1019.55
2022-07-27T23:15:08.630Z,1019.65
2022-07-27T23:20:08.360Z,1019.58
2022-07-27T23:25:08.066Z,1019.57
2022-07-27T23:30:08.075Z,1019.65
2022-07-27T23:35:07.815Z,1019.57
2022-07-27T23:40:09.688Z,1019.55
2022-07-27T23:45:08.418Z,1019.54
2022-07-27T23:50:08.124Z,1019.54
2022-07-27T23:55:07.823Z,1019.53
